createdAt,value
2024-04-10T00:01:50.199Z,69.13
2024-04-10T00:04:17.547Z,69.38
2024-04-10T00:06:44.756Z,69.73
2024-04-10T00:09:12.091Z,70.13
2024-04-10T00:11:39.338Z,70.33
2024-04-10T00:14:09.237Z,71.50
2024-04-10T00:16:36.298Z,70.93
2024-04-10T00:19:03.577Z,71.60
2024-04-10T00:21:36.176Z,71.06
2024-04-10T00:24:03.400Z,70.83
2024-04-10T00:26:30.455Z,72.04
2024-04-10T00:28:57.608Z,72.24
2024-04-10T00:31:27.389Z,71.84
2024-04-10T00:33:54.543Z,72.23
2024-04-10T00:36:21.816Z,72.61
2024-04-10T00:38:48.956Z,72.41
2024-04-10T00:41:16.481Z,73.47
2024-04-10T00:43:43.873Z,74.27
2024-04-10T00:46:15.816Z,73.55
2024-04-10T00:48:46.562Z,74.85
2024-04-10T00:51:17.345Z,74.86
2024-04-10T00:53:45.222Z,74.05
2024-04-10T00:56:12.561Z,75.00
2024-04-10T00:58:40.005Z,74.95
2024-04-10T01:01:08.379Z,75.53
2024-04-10T01:03:39.192Z,77.57
2024-04-10T01:06:10.320Z,78.52
2024-04-10T01:08:38.661Z,79.14
2024-04-10T01:11:07.092Z,78.79
2024-04-10T01:13:35.191Z,79.43
2024-04-10T01:16:02.449Z,80.45
2024-04-10T01:18:29.597Z,79.74
2024-04-10T01:20:56.615Z,79.43
2024-04-10T01:23:26.408Z,80.08
2024-04-10T01:25:53.625Z,79.83
2024-04-10T01:28:20.731Z,79.94
2024-04-10T01:30:47.864Z,79.90
2024-04-10T01:33:15.020Z,78.95
2024-04-10T01:35:42.658Z,79.25
2024-04-10T01:38:09.994Z,80.21
2024-04-10T01:40:40.857Z,80.93
2024-04-10T01:43:07.889Z,80.79
2024-04-10T01:45:41.631Z,81.05
2024-04-10T01:48:09.030Z,81.73
2024-04-10T01:50:36.239Z,82.06
2024-04-10T01:53:03.376Z,83.04
2024-04-10T01:55:30.454Z,82.57
2024-04-10T01:58:00.199Z,83.31
2024-04-10T02:00:27.526Z,82.41
2024-04-10T02:02:54.932Z,83.77
2024-04-10T02:05:22.308Z,84.02
2024-04-10T02:07:52.124Z,83.99
2024-04-10T02:10:19.206Z,83.00
2024-04-10T02:12:46.236Z,83.11
2024-04-10T02:15:16.118Z,82.56
2024-04-10T02:17:43.412Z,82.14
2024-04-10T02:20:19.491Z,82.36
2024-04-10T02:22:46.558Z,83.13
